sensor_id;sensor_type;location;lat;lon;timestamp;P1;durP1;ratioP1;P2;durP2;ratioP2
37483;SDS011;23337;52.212;9.926;2023-04-27T00:01:24;7.20;;;4.87;;
37483;SDS011;23337;52.212;9.926;2023-04-27T00:03:49;5.83;;;4.20;;
37483;SDS011;23337;52.212;9.926;2023-04-27T00:06:15;7.43;;;4.20;;
37483;SDS011;23337;52.212;9.926;2023-04-27T00:08:41;4.77;;;4.27;;
37483;SDS011;23337;52.212;9.926;2023-04-27T00:11:07;6.90;;;3.70;;
37483;SDS011;23337;52.212;9.926;2023-04-27T00:13:33;5.47;;;3.93;;
37483;SDS011;23337;52.212;9.926;2023-04-27T00:15:59;10.63;;;4.50;;
37483;SDS011;23337;52.212;9.926;2023-04-27T00:18:27;5.80;;;3.57;;
37483;SDS011;23337;52.212;9.926;2023-04-27T00:20:53;5.63;;;3.40;;
37483;SDS011;23337;52.212;9.926;2023-04-27T00:23:19;6.03;;;3.83;;
37483;SDS011;23337;52.212;9.926;2023-04-27T00:25:45;9.20;;;4.33;;
37483;SDS011;23337;52.212;9.926;2023-04-27T00:28:11;5.07;;;4.10;;
37483;SDS011;23337;52.212;9.926;2023-04-27T00:30:37;7.70;;;4.33;;
37483;SDS011;23337;52.212;9.926;2023-04-27T00:33:03;8.50;;;4.10;;
37483;SDS011;23337;52.212;9.926;2023-04-27T00:35:31;8.50;;;5.27;;
37483;SDS011;23337;52.212;9.926;2023-04-27T00:37:57;5.90;;;4.43;;
37483;SDS011;23337;52.212;9.926;2023-04-27T00:40:23;7.13;;;3.70;;
37483;SDS011;23337;52.212;9.926;2023-04-27T00:42:49;5.43;;;3.97;;
37483;SDS011;23337;52.212;9.926;2023-04-27T00:45:15;7.27;;;4.03;;
37483;SDS011;23337;52.212;9.926;2023-04-27T00:47:41;7.97;;;4.67;;
37483;SDS011;23337;52.212;9.926;2023-04-27T00:50:08;4.87;;;4.03;;
37483;SDS011;23337;52.212;9.926;2023-04-27T00:52:37;6.23;;;4.37;;
37483;SDS011;23337;52.212;9.926;2023-04-27T00:55:04;7.13;;;3.97;;
37483;SDS011;23337;52.212;9.926;2023-04-27T00:57:30;8.10;;;4.50;;
37483;SDS011;23337;52.212;9.926;2023-04-27T01:00:01;8.07;;;4.47;;
37483;SDS011;23337;52.212;9.926;2023-04-27T01:02:30;7.03;;;3.90;;
37483;SDS011;23337;52.212;9.926;2023-04-27T01:04:56;7.37;;;4.20;;
37483;SDS011;23337;52.212;9.926;2023-04-27T01:07:25;5.23;;;4.00;;
37483;SDS011;23337;52.212;9.926;2023-04-27T01:09:51;8.73;;;4.27;;
37483;SDS011;23337;52.212;9.926;2023-04-27T01:12:17;6.57;;;4.13;;
37483;SDS011;23337;52.212;9.926;2023-04-27T01:14:43;6.80;;;4.03;;
37483;SDS011;23337;52.212;9.926;2023-04-27T01:17:09;7.07;;;4.73;;
37483;SDS011;23337;52.212;9.926;2023-04-27T01:19:35;5.23;;;4.43;;
37483;SDS011;23337;52.212;9.926;2023-04-27T01:22:02;5.13;;;3.90;;
37483;SDS011;23337;52.212;9.926;2023-04-27T01:24:28;5.93;;;4.33;;
37483;SDS011;23337;52.212;9.926;2023-04-27T01:26:54;6.83;;;4.50;;
37483;SDS011;23337;52.212;9.926;2023-04-27T01:29:20;6.53;;;4.47;;
37483;SDS011;23337;52.212;9.926;2023-04-27T01:31:46;8.83;;;4.33;;
37483;SDS011;23337;52.212;9.926;2023-04-27T01:34:12;7.87;;;4.40;;
37483;SDS011;23337;52.212;9.926;2023-04-27T01:36:38;8.90;;;4.93;;
37483;SDS011;23337;52.212;9.926;2023-04-27T01:39:04;6.43;;;4.47;;
37483;SDS011;23337;52.212;9.926;2023-04-27T01:41:33;8.47;;;4.83;;
37483;SDS011;23337;52.212;9.926;2023-04-27T01:43:59;10.70;;;4.37;;
37483;SDS011;23337;52.212;9.926;2023-04-27T01:46:25;7.97;;;4.53;;
37483;SDS011;23337;52.212;9.926;2023-04-27T01:48:51;6.47;;;4.43;;
37483;SDS011;23337;52.212;9.926;2023-04-27T01:51:17;6.43;;;3.87;;
37483;SDS011;23337;52.212;9.926;2023-04-27T01:53:43;11.00;;;5.30;;
37483;SDS011;23337;52.212;9.926;2023-04-27T01:56:09;5.73;;;5.03;;
37483;SDS011;23337;52.212;9.926;2023-04-27T01:58:35;7.00;;;4.40;;
37483;SDS011;23337;52.212;9.926;2023-04-27T02:01:01;7.33;;;5.20;;
37483;SDS011;23337;52.212;9.926;2023-04-27T02:03:27;8.40;;;5.87;;
37483;SDS011;23337;52.212;9.926;2023-04-27T02:05:53;9.17;;;4.97;;
37483;SDS011;23337;52.212;9.926;2023-04-27T02:08:19;8.37;;;5.47;;
37483;SDS011;23337;52.212;9.926;2023-04-27T02:10:45;8.43;;;4.27;;
37483;SDS011;23337;52.212;9.926;2023-04-27T02:13:11;8.13;;;4.90;;
37483;SDS011;23337;52.212;9.926;2023-04-27T02:15:37;6.37;;;4.93;;
37483;SDS011;23337;52.212;9.926;2023-04-27T02:18:03;7.43;;;5.10;;
37483;SDS011;23337;52.212;9.926;2023-04-27T02:20:30;14.90;;;5.57;;
37483;SDS011;23337;52.212;9.926;2023-04-27T02:22:56;10.47;;;5.67;;
37483;SDS011;23337;52.212;9.926;2023-04-27T02:25:22;8.93;;;5.03;;
37483;SDS011;23337;52.212;9.926;2023-04-27T02:27:48;5.00;;;4.13;;
37483;SDS011;23337;52.212;9.926;2023-04-27T02:30:14;6.53;;;4.30;;
37483;SDS011;23337;52.212;9.926;2023-04-27T02:32:40;10.93;;;5.13;;
37483;SDS011;23337;52.212;9.926;2023-04-27T02:35:06;7.57;;;4.93;;
37483;SDS011;23337;52.212;9.926;2023-04-27T02:37:33;6.47;;;4.90;;
37483;SDS011;23337;52.212;9.926;2023-04-27T02:39:59;6.60;;;4.67;;
37483;SDS011;23337;52.212;9.926;2023-04-27T02:42:25;5.83;;;4.10;;
37483;SDS011;23337;52.212;9.926;2023-04-27T02:44:51;7.27;;;4.70;;
37483;SDS011;23337;52.212;9.926;2023-04-27T02:47:17;6.40;;;4.13;;
37483;SDS011;23337;52.212;9.926;2023-04-27T02:49:43;7.20;;;4.13;;
37483;SDS011;23337;52.212;9.926;2023-04-27T02:52:09;6.97;;;4.10;;
37483;SDS011;23337;52.212;9.926;2023-04-27T02:54:35;7.90;;;4.80;;
37483;SDS011;23337;52.212;9.926;2023-04-27T02:57:01;6.53;;;5.03;;
37483;SDS011;23337;52.212;9.926;2023-04-27T02:59:27;4.93;;;4.03;;
37483;SDS011;23337;52.212;9.926;2023-04-27T03:01:53;6.17;;;4.53;;
37483;SDS011;23337;52.212;9.926;2023-04-27T03:04:19;7.60;;;4.13;;
37483;SDS011;23337;52.212;9.926;2023-04-27T03:06:45;7.73;;;5.00;;
37483;SDS011;23337;52.212;9.926;2023-04-27T03:09:11;6.10;;;4.20;;
37483;SDS011;23337;52.212;9.926;2023-04-27T03:11:37;7.30;;;4.97;;
37483;SDS011;23337;52.212;9.926;2023-04-27T03:14:03;9.43;;;4.27;;
37483;SDS011;23337;52.212;9.926;2023-04-27T03:16:30;6.77;;;4.23;;
37483;SDS011;23337;52.212;9.926;2023-04-27T03:18:56;5.53;;;4.00;;
37483;SDS011;23337;52.212;9.926;2023-04-27T03:21:22;5.27;;;4.07;;
37483;SDS011;23337;52.212;9.926;2023-04-27T03:23:48;6.83;;;4.00;;
37483;SDS011;23337;52.212;9.926;2023-04-27T03:26:14;7.53;;;4.03;;
37483;SDS011;23337;52.212;9.926;2023-04-27T03:28:40;6.83;;;4.83;;
37483;SDS011;23337;52.212;9.926;2023-04-27T03:31:07;9.63;;;5.03;;
37483;SDS011;23337;52.212;9.926;2023-04-27T03:33:33;8.50;;;5.17;;
37483;SDS011;23337;52.212;9.926;2023-04-27T03:36:00;5.97;;;3.97;;
37483;SDS011;23337;52.212;9.926;2023-04-27T03:38:26;8.60;;;4.90;;
37483;SDS011;23337;52.212;9.926;2023-04-27T03:40:53;6.93;;;4.30;;
37483;SDS011;23337;52.212;9.926;2023-04-27T03:43:19;6.37;;;4.70;;
37483;SDS011;23337;52.212;9.926;2023-04-27T03:45:46;6.47;;;4.27;;
37483;SDS011;23337;52.212;9.926;2023-04-27T03:48:15;5.07;;;4.00;;
37483;SDS011;23337;52.212;9.926;2023-04-27T03:50:41;6.93;;;4.87;;
37483;SDS011;23337;52.212;9.926;2023-04-27T03:53:07;9.10;;;4.43;;
37483;SDS011;23337;52.212;9.926;2023-04-27T03:55:37;6.50;;;4.53;;
37483;SDS011;23337;52.212;9.926;2023-04-27T03:58:03;7.13;;;4.23;;
37483;SDS011;23337;52.212;9.926;2023-04-27T04:00:29;6.77;;;4.63;;
37483;SDS011;23337;52.212;9.926;2023-04-27T04:02:55;10.77;;;4.40;;
37483;SDS011;23337;52.212;9.926;2023-04-27T04:05:21;6.33;;;5.03;;
37483;SDS011;23337;52.212;9.926;2023-04-27T04:07:47;7.93;;;4.53;;
37483;SDS011;23337;52.212;9.926;2023-04-27T04:10:14;7.30;;;4.30;;
37483;SDS011;23337;52.212;9.926;2023-04-27T04:12:40;5.63;;;4.50;;
37483;SDS011;23337;52.212;9.926;2023-04-27T04:15:06;6.43;;;4.17;;
37483;SDS011;23337;52.212;9.926;2023-04-27T04:17:32;6.83;;;4.07;;
37483;SDS011;23337;52.212;9.926;2023-04-27T04:19:59;13.23;;;5.10;;
37483;SDS011;23337;52.212;9.926;2023-04-27T04:22:25;6.50;;;4.30;;
37483;SDS011;23337;52.212;9.926;2023-04-27T04:24:51;6.60;;;4.33;;
37483;SDS011;23337;52.212;9.926;2023-04-27T04:27:17;7.20;;;4.57;;
37483;SDS011;23337;52.212;9.926;2023-04-27T04:29:43;10.63;;;4.20;;
37483;SDS011;23337;52.212;9.926;2023-04-27T04:32:09;6.03;;;4.13;;
37483;SDS011;23337;52.212;9.926;2023-04-27T04:34:36;8.37;;;4.23;;
37483;SDS011;23337;52.212;9.926;2023-04-27T04:37:02;7.13;;;4.87;;
37483;SDS011;23337;52.212;9.926;2023-04-27T04:39:31;7.03;;;4.40;;
37483;SDS011;23337;52.212;9.926;2023-04-27T04:41:57;11.93;;;5.67;;
37483;SDS011;23337;52.212;9.926;2023-04-27T04:44:23;9.13;;;4.43;;
37483;SDS011;23337;52.212;9.926;2023-04-27T04:46:49;6.67;;;3.90;;
37483;SDS011;23337;52.212;9.926;2023-04-27T04:49:15;6.67;;;3.80;;
37483;SDS011;23337;52.212;9.926;2023-04-27T04:51:42;6.73;;;4.07;;
37483;SDS011;23337;52.212;9.926;2023-04-27T04:54:08;7.00;;;4.40;;
37483;SDS011;23337;52.212;9.926;2023-04-27T04:56:35;7.20;;;3.53;;
37483;SDS011;23337;52.212;9.926;2023-04-27T04:59:01;6.50;;;3.90;;
37483;SDS011;23337;52.212;9.926;2023-04-27T05:01:28;8.13;;;4.40;;
37483;SDS011;23337;52.212;9.926;2023-04-27T05:03:53;6.07;;;4.10;;
37483;SDS011;23337;52.212;9.926;2023-04-27T05:06:19;6.03;;;3.53;;
37483;SDS011;23337;52.212;9.926;2023-04-27T05:08:45;6.73;;;4.13;;
37483;SDS011;23337;52.212;9.926;2023-04-27T05:11:11;6.17;;;3.73;;
37483;SDS011;23337;52.212;9.926;2023-04-27T05:13:37;5.73;;;3.67;;
37483;SDS011;23337;52.212;9.926;2023-04-27T05:16:04;5.00;;;3.00;;
37483;SDS011;23337;52.212;9.926;2023-04-27T05:18:30;4.33;;;3.43;;
37483;SDS011;23337;52.212;9.926;2023-04-27T05:20:56;7.60;;;3.50;;
37483;SDS011;23337;52.212;9.926;2023-04-27T05:23:22;7.37;;;3.27;;
37483;SDS011;23337;52.212;9.926;2023-04-27T05:25:48;5.93;;;3.83;;
37483;SDS011;23337;52.212;9.926;2023-04-27T05:28:14;9.50;;;3.70;;
37483;SDS011;23337;52.212;9.926;2023-04-27T05:30:40;3.80;;;3.10;;
37483;SDS011;23337;52.212;9.926;2023-04-27T05:33:06;4.60;;;3.27;;
37483;SDS011;23337;52.212;9.926;2023-04-27T05:35:32;10.10;;;3.77;;
37483;SDS011;23337;52.212;9.926;2023-04-27T05:37:58;6.00;;;3.60;;
37483;SDS011;23337;52.212;9.926;2023-04-27T05:40:25;4.80;;;3.37;;
37483;SDS011;23337;52.212;9.926;2023-04-27T05:42:51;6.27;;;3.50;;
37483;SDS011;23337;52.212;9.926;2023-04-27T05:45:17;5.13;;;3.37;;
37483;SDS011;23337;52.212;9.926;2023-04-27T05:47:42;10.13;;;3.30;;
37483;SDS011;23337;52.212;9.926;2023-04-27T05:50:09;6.40;;;3.60;;
37483;SDS011;23337;52.212;9.926;2023-04-27T05:52:35;8.83;;;3.50;;
37483;SDS011;23337;52.212;9.926;2023-04-27T05:55:01;6.53;;;3.87;;
37483;SDS011;23337;52.212;9.926;2023-04-27T05:57:28;7.10;;;3.57;;
37483;SDS011;23337;52.212;9.926;2023-04-27T05:59:54;9.43;;;4.13;;
37483;SDS011;23337;52.212;9.926;2023-04-27T06:02:21;5.93;;;3.80;;
37483;SDS011;23337;52.212;9.926;2023-04-27T06:04:47;4.80;;;3.57;;
37483;SDS011;23337;52.212;9.926;2023-04-27T06:07:13;5.50;;;3.80;;
37483;SDS011;23337;52.212;9.926;2023-04-27T06:09:40;6.63;;;3.70;;
37483;SDS011;23337;52.212;9.926;2023-04-27T06:12:06;9.73;;;3.90;;
37483;SDS011;23337;52.212;9.926;2023-04-27T06:14:33;9.23;;;3.33;;
37483;SDS011;23337;52.212;9.926;2023-04-27T06:16:59;3.83;;;3.33;;
37483;SDS011;23337;52.212;9.926;2023-04-27T06:19:25;5.90;;;3.60;;
37483;SDS011;23337;52.212;9.926;2023-04-27T06:21:52;6.00;;;3.83;;
37483;SDS011;23337;52.212;9.926;2023-04-27T06:24:18;3.77;;;3.13;;
37483;SDS011;23337;52.212;9.926;2023-04-27T06:26:44;6.97;;;3.47;;
37483;SDS011;23337;52.212;9.926;2023-04-27T06:29:10;8.57;;;3.23;;
37483;SDS011;23337;52.212;9.926;2023-04-27T06:31:36;7.03;;;3.60;;
37483;SDS011;23337;52.212;9.926;2023-04-27T06:34:02;5.43;;;2.97;;
37483;SDS011;23337;52.212;9.926;2023-04-27T06:36:28;4.60;;;3.00;;
37483;SDS011;23337;52.212;9.926;2023-04-27T06:38:55;4.03;;;2.87;;
37483;SDS011;23337;52.212;9.926;2023-04-27T06:41:22;4.27;;;2.53;;
37483;SDS011;23337;52.212;9.926;2023-04-27T06:43:48;3.50;;;2.70;;
37483;SDS011;23337;52.212;9.926;2023-04-27T06:46:14;6.23;;;3.00;;
37483;SDS011;23337;52.212;9.926;2023-04-27T06:48:40;4.70;;;2.80;;
37483;SDS011;23337;52.212;9.926;2023-04-27T06:51:06;5.00;;;2.80;;
37483;SDS011;23337;52.212;9.926;2023-04-27T06:53:32;4.93;;;2.43;;
37483;SDS011;23337;52.212;9.926;2023-04-27T06:55:58;4.47;;;2.90;;
37483;SDS011;23337;52.212;9.926;2023-04-27T06:58:25;5.00;;;2.13;;
37483;SDS011;23337;52.212;9.926;2023-04-27T07:00:53;5.53;;;2.65;;
37483;SDS011;23337;52.212;9.926;2023-04-27T07:03:20;7.03;;;2.60;;
37483;SDS011;23337;52.212;9.926;2023-04-27T07:05:46;7.57;;;2.50;;
37483;SDS011;23337;52.212;9.926;2023-04-27T07:08:12;3.47;;;2.50;;
37483;SDS011;23337;52.212;9.926;2023-04-27T07:10:38;5.30;;;2.30;;
37483;SDS011;23337;52.212;9.926;2023-04-27T07:13:04;4.00;;;2.43;;
37483;SDS011;23337;52.212;9.926;2023-04-27T07:15:31;5.33;;;2.60;;
37483;SDS011;23337;52.212;9.926;2023-04-27T07:17:57;4.83;;;3.03;;
37483;SDS011;23337;52.212;9.926;2023-04-27T07:20:23;3.23;;;2.70;;
37483;SDS011;23337;52.212;9.926;2023-04-27T07:22:49;6.03;;;2.70;;
37483;SDS011;23337;52.212;9.926;2023-04-27T07:25:15;6.13;;;3.00;;
37483;SDS011;23337;52.212;9.926;2023-04-27T07:27:41;6.70;;;2.43;;
37483;SDS011;23337;52.212;9.926;2023-04-27T07:30:07;2.33;;;1.80;;
37483;SDS011;23337;52.212;9.926;2023-04-27T07:32:38;3.47;;;2.27;;
37483;SDS011;23337;52.212;9.926;2023-04-27T07:35:04;2.77;;;1.53;;
37483;SDS011;23337;52.212;9.926;2023-04-27T07:37:30;3.73;;;1.60;;
37483;SDS011;23337;52.212;9.926;2023-04-27T07:39:56;3.40;;;1.73;;
37483;SDS011;23337;52.212;9.926;2023-04-27T07:42:23;3.17;;;1.80;;
37483;SDS011;23337;52.212;9.926;2023-04-27T07:44:49;5.97;;;2.27;;
37483;SDS011;23337;52.212;9.926;2023-04-27T07:47:16;5.23;;;2.80;;
37483;SDS011;23337;52.212;9.926;2023-04-27T07:49:43;2.30;;;2.10;;
37483;SDS011;23337;52.212;9.926;2023-04-27T07:52:12;3.23;;;1.60;;
37483;SDS011;23337;52.212;9.926;2023-04-27T07:54:38;6.13;;;2.83;;
37483;SDS011;23337;52.212;9.926;2023-04-27T07:57:07;4.37;;;1.70;;
37483;SDS011;23337;52.212;9.926;2023-04-27T07:59:37;4.33;;;1.97;;
37483;SDS011;23337;52.212;9.926;2023-04-27T08:02:03;4.40;;;1.97;;
37483;SDS011;23337;52.212;9.926;2023-04-27T08:04:28;3.83;;;1.90;;
37483;SDS011;23337;52.212;9.926;2023-04-27T08:06:55;7.17;;;2.23;;
37483;SDS011;23337;52.212;9.926;2023-04-27T08:09:21;7.00;;;1.70;;
37483;SDS011;23337;52.212;9.926;2023-04-27T08:11:47;2.90;;;1.63;;
37483;SDS011;23337;52.212;9.926;2023-04-27T08:14:13;2.67;;;1.70;;
37483;SDS011;23337;52.212;9.926;2023-04-27T08:16:39;6.67;;;2.57;;
37483;SDS011;23337;52.212;9.926;2023-04-27T08:19:06;3.67;;;2.13;;
37483;SDS011;23337;52.212;9.926;2023-04-27T08:21:33;2.90;;;1.70;;
37483;SDS011;23337;52.212;9.926;2023-04-27T08:23:59;6.23;;;1.33;;
37483;SDS011;23337;52.212;9.926;2023-04-27T08:26:25;5.20;;;2.10;;
37483;SDS011;23337;52.212;9.926;2023-04-27T08:28:51;3.63;;;1.73;;
37483;SDS011;23337;52.212;9.926;2023-04-27T08:31:17;3.77;;;2.13;;
37483;SDS011;23337;52.212;9.926;2023-04-27T08:33:43;4.97;;;2.10;;
37483;SDS011;23337;52.212;9.926;2023-04-27T08:36:09;4.63;;;1.67;;
37483;SDS011;23337;52.212;9.926;2023-04-27T08:38:35;3.13;;;1.80;;
37483;SDS011;23337;52.212;9.926;2023-04-27T08:41:00;3.57;;;1.50;;
37483;SDS011;23337;52.212;9.926;2023-04-27T08:43:32;3.97;;;1.73;;
37483;SDS011;23337;52.212;9.926;2023-04-27T08:45:59;3.97;;;1.20;;
37483;SDS011;23337;52.212;9.926;2023-04-27T08:48:25;3.47;;;1.47;;
37483;SDS011;23337;52.212;9.926;2023-04-27T08:50:51;3.10;;;1.63;;
37483;SDS011;23337;52.212;9.926;2023-04-27T08:53:17;2.83;;;1.30;;
37483;SDS011;23337;52.212;9.926;2023-04-27T08:55:44;3.83;;;1.60;;
37483;SDS011;23337;52.212;9.926;2023-04-27T08:58:10;1.83;;;1.63;;
37483;SDS011;23337;52.212;9.926;2023-04-27T09:00:37;4.33;;;1.70;;
37483;SDS011;23337;52.212;9.926;2023-04-27T09:03:07;3.63;;;1.90;;
37483;SDS011;23337;52.212;9.926;2023-04-27T09:05:33;3.60;;;1.97;;
37483;SDS011;23337;52.212;9.926;2023-04-27T09:08:03;1.70;;;1.33;;
37483;SDS011;23337;52.212;9.926;2023-04-27T09:10:51;3.47;;;1.40;;
37483;SDS011;23337;52.212;9.926;2023-04-27T09:13:17;3.30;;;1.57;;
37483;SDS011;23337;52.212;9.926;2023-04-27T09:15:47;5.73;;;1.77;;
37483;SDS011;23337;52.212;9.926;2023-04-27T09:18:22;3.03;;;1.70;;
37483;SDS011;23337;52.212;9.926;2023-04-27T09:20:49;4.00;;;1.57;;
37483;SDS011;23337;52.212;9.926;2023-04-27T09:23:28;3.50;;;1.50;;
37483;SDS011;23337;52.212;9.926;2023-04-27T09:25:54;3.87;;;1.43;;
37483;SDS011;23337;52.212;9.926;2023-04-27T09:28:23;2.17;;;1.40;;
37483;SDS011;23337;52.212;9.926;2023-04-27T09:30:52;4.67;;;1.73;;
37483;SDS011;23337;52.212;9.926;2023-04-27T09:33:25;3.37;;;1.83;;
37483;SDS011;23337;52.212;9.926;2023-04-27T09:35:52;5.83;;;1.70;;
37483;SDS011;23337;52.212;9.926;2023-04-27T09:38:18;3.40;;;1.70;;
37483;SDS011;23337;52.212;9.926;2023-04-27T09:40:45;4.53;;;2.60;;
37483;SDS011;23337;52.212;9.926;2023-04-27T09:43:11;5.00;;;2.73;;
37483;SDS011;23337;52.212;9.926;2023-04-27T09:45:37;4.87;;;1.90;;
37483;SDS011;23337;52.212;9.926;2023-04-27T09:48:03;1.70;;;1.50;;
37483;SDS011;23337;52.212;9.926;2023-04-27T09:50:33;3.55;;;1.60;;
37483;SDS011;23337;52.212;9.926;2023-04-27T09:53:00;3.60;;;1.40;;
37483;SDS011;23337;52.212;9.926;2023-04-27T09:55:27;3.03;;;1.80;;
37483;SDS011;23337;52.212;9.926;2023-04-27T10:00:41;3.17;;;1.63;;
37483;SDS011;23337;52.212;9.926;2023-04-27T10:03:21;2.27;;;1.50;;
37483;SDS011;23337;52.212;9.926;2023-04-27T10:08:34;2.90;;;1.70;;
37483;SDS011;23337;52.212;9.926;2023-04-27T10:11:00;7.53;;;2.50;;
37483;SDS011;23337;52.212;9.926;2023-04-27T10:13:26;2.90;;;1.77;;
37483;SDS011;23337;52.212;9.926;2023-04-27T10:15:52;2.77;;;1.60;;
37483;SDS011;23337;52.212;9.926;2023-04-27T10:18:53;2.57;;;1.70;;
37483;SDS011;23337;52.212;9.926;2023-04-27T10:21:10;3.47;;;1.67;;
37483;SDS011;23337;52.212;9.926;2023-04-27T10:23:44;3.13;;;1.70;;
37483;SDS011;23337;52.212;9.926;2023-04-27T10:26:10;3.70;;;1.50;;
37483;SDS011;23337;52.212;9.926;2023-04-27T10:28:37;4.20;;;2.10;;
37483;SDS011;23337;52.212;9.926;2023-04-27T10:31:08;3.87;;;1.70;;
37483;SDS011;23337;52.212;9.926;2023-04-27T10:33:40;4.93;;;1.67;;
37483;SDS011;23337;52.212;9.926;2023-04-27T10:36:07;2.07;;;1.70;;
37483;SDS011;23337;52.212;9.926;2023-04-27T10:38:39;4.07;;;1.77;;
37483;SDS011;23337;52.212;9.926;2023-04-27T10:41:11;1.73;;;1.50;;
37483;SDS011;23337;52.212;9.926;2023-04-27T10:43:38;2.33;;;1.37;;
37483;SDS011;23337;52.212;9.926;2023-04-27T10:46:14;1.97;;;1.33;;
37483;SDS011;23337;52.212;9.926;2023-04-27T10:48:41;5.47;;;2.10;;
37483;SDS011;23337;52.212;9.926;2023-04-27T10:51:07;3.47;;;1.63;;
37483;SDS011;23337;52.212;9.926;2023-04-27T10:53:34;3.47;;;2.10;;
37483;SDS011;23337;52.212;9.926;2023-04-27T10:56:00;1.87;;;1.30;;
37483;SDS011;23337;52.212;9.926;2023-04-27T10:58:26;3.30;;;1.67;;
37483;SDS011;23337;52.212;9.926;2023-04-27T11:00:52;4.37;;;1.67;;
37483;SDS011;23337;52.212;9.926;2023-04-27T11:03:20;3.83;;;1.63;;
37483;SDS011;23337;52.212;9.926;2023-04-27T11:05:46;3.20;;;1.60;;
37483;SDS011;23337;52.212;9.926;2023-04-27T11:08:14;3.13;;;1.80;;
37483;SDS011;23337;52.212;9.926;2023-04-27T11:10:44;1.90;;;1.67;;
37483;SDS011;23337;52.212;9.926;2023-04-27T11:13:21;4.67;;;2.33;;
37483;SDS011;23337;52.212;9.926;2023-04-27T11:15:54;1.97;;;1.30;;
37483;SDS011;23337;52.212;9.926;2023-04-27T11:18:22;2.67;;;1.70;;
37483;SDS011;23337;52.212;9.926;2023-04-27T11:20:49;2.20;;;1.50;;
37483;SDS011;23337;52.212;9.926;2023-04-27T11:25:48;2.10;;;1.77;;
37483;SDS011;23337;52.212;9.926;2023-04-27T11:28:21;1.70;;;1.33;;
37483;SDS011;23337;52.212;9.926;2023-04-27T11:30:57;3.80;;;1.80;;
37483;SDS011;23337;52.212;9.926;2023-04-27T11:35:52;1.60;;;1.40;;
37483;SDS011;23337;52.212;9.926;2023-04-27T11:38:18;1.97;;;1.53;;
37483;SDS011;23337;52.212;9.926;2023-04-27T11:40:45;4.73;;;1.67;;
37483;SDS011;23337;52.212;9.926;2023-04-27T11:43:12;3.73;;;1.53;;
37483;SDS011;23337;52.212;9.926;2023-04-27T11:45:42;3.80;;;1.60;;
37483;SDS011;23337;52.212;9.926;2023-04-27T11:48:12;2.13;;;1.60;;
37483;SDS011;23337;52.212;9.926;2023-04-27T11:50:38;2.17;;;1.60;;
37483;SDS011;23337;52.212;9.926;2023-04-27T11:53:05;3.13;;;1.83;;
37483;SDS011;23337;52.212;9.926;2023-04-27T11:55:34;5.37;;;1.67;;
37483;SDS011;23337;52.212;9.926;2023-04-27T11:58:01;5.20;;;1.57;;
37483;SDS011;23337;52.212;9.926;2023-04-27T12:00:27;1.67;;;1.30;;
37483;SDS011;23337;52.212;9.926;2023-04-27T12:02:53;5.50;;;1.70;;
37483;SDS011;23337;52.212;9.926;2023-04-27T12:05:19;4.60;;;1.60;;
37483;SDS011;23337;52.212;9.926;2023-04-27T12:07:45;2.70;;;1.77;;
37483;SDS011;23337;52.212;9.926;2023-04-27T12:10:11;3.67;;;1.50;;
37483;SDS011;23337;52.212;9.926;2023-04-27T12:12:37;2.93;;;1.60;;
37483;SDS011;23337;52.212;9.926;2023-04-27T12:15:03;1.87;;;1.67;;
37483;SDS011;23337;52.212;9.926;2023-04-27T12:17:29;3.00;;;1.80;;
37483;SDS011;23337;52.212;9.926;2023-04-27T12:19:55;4.07;;;1.40;;
37483;SDS011;23337;52.212;9.926;2023-04-27T12:22:21;3.13;;;1.93;;
37483;SDS011;23337;52.212;9.926;2023-04-27T12:24:47;2.87;;;1.63;;
37483;SDS011;23337;52.212;9.926;2023-04-27T12:27:13;4.33;;;2.00;;
37483;SDS011;23337;52.212;9.926;2023-04-27T12:29:39;1.43;;;1.30;;
37483;SDS011;23337;52.212;9.926;2023-04-27T12:32:05;3.63;;;1.80;;
37483;SDS011;23337;52.212;9.926;2023-04-27T12:34:31;7.97;;;2.00;;
37483;SDS011;23337;52.212;9.926;2023-04-27T12:36:58;5.20;;;2.00;;
37483;SDS011;23337;52.212;9.926;2023-04-27T12:39:24;1.50;;;1.40;;
37483;SDS011;23337;52.212;9.926;2023-04-27T12:41:51;2.43;;;1.90;;
37483;SDS011;23337;52.212;9.926;2023-04-27T12:44:17;2.83;;;1.60;;
37483;SDS011;23337;52.212;9.926;2023-04-27T12:46:44;3.40;;;1.43;;
37483;SDS011;23337;52.212;9.926;2023-04-27T12:49:11;2.87;;;1.50;;
37483;SDS011;23337;52.212;9.926;2023-04-27T12:51:37;4.30;;;1.87;;
37483;SDS011;23337;52.212;9.926;2023-04-27T12:54:04;4.10;;;1.87;;
37483;SDS011;23337;52.212;9.926;2023-04-27T12:56:30;3.17;;;1.70;;
37483;SDS011;23337;52.212;9.926;2023-04-27T12:58:56;3.00;;;2.03;;
37483;SDS011;23337;52.212;9.926;2023-04-27T13:01:22;2.73;;;2.00;;
37483;SDS011;23337;52.212;9.926;2023-04-27T13:03:50;3.50;;;1.70;;
37483;SDS011;23337;52.212;9.926;2023-04-27T13:06:17;3.37;;;2.27;;
37483;SDS011;23337;52.212;9.926;2023-04-27T13:08:43;2.97;;;2.77;;
37483;SDS011;23337;52.212;9.926;2023-04-27T13:11:09;1.73;;;1.63;;
37483;SDS011;23337;52.212;9.926;2023-04-27T13:13:35;2.60;;;1.80;;
37483;SDS011;23337;52.212;9.926;2023-04-27T13:16:01;2.77;;;1.97;;
37483;SDS011;23337;52.212;9.926;2023-04-27T13:18:28;2.33;;;1.80;;
37483;SDS011;23337;52.212;9.926;2023-04-27T13:20:57;3.63;;;2.23;;
37483;SDS011;23337;52.212;9.926;2023-04-27T13:23:23;4.10;;;1.97;;
37483;SDS011;23337;52.212;9.926;2023-04-27T13:25:50;5.23;;;1.90;;
37483;SDS011;23337;52.212;9.926;2023-04-27T13:28:17;2.40;;;1.87;;
37483;SDS011;23337;52.212;9.926;2023-04-27T13:30:42;2.77;;;1.73;;
37483;SDS011;23337;52.212;9.926;2023-04-27T13:33:09;3.73;;;2.53;;
37483;SDS011;23337;52.212;9.926;2023-04-27T13:35:38;4.10;;;2.07;;
37483;SDS011;23337;52.212;9.926;2023-04-27T13:38:04;3.37;;;1.70;;
37483;SDS011;23337;52.212;9.926;2023-04-27T13:40:30;2.97;;;1.83;;
37483;SDS011;23337;52.212;9.926;2023-04-27T13:42:56;4.47;;;2.20;;
37483;SDS011;23337;52.212;9.926;2023-04-27T13:45:22;3.67;;;2.00;;
37483;SDS011;23337;52.212;9.926;2023-04-27T13:47:48;4.83;;;2.20;;
37483;SDS011;23337;52.212;9.926;2023-04-27T13:50:14;4.57;;;1.97;;
37483;SDS011;23337;52.212;9.926;2023-04-27T13:52:40;2.63;;;2.03;;
37483;SDS011;23337;52.212;9.926;2023-04-27T13:55:07;3.03;;;2.43;;
37483;SDS011;23337;52.212;9.926;2023-04-27T13:57:34;2.23;;;1.77;;
37483;SDS011;23337;52.212;9.926;2023-04-27T14:00:00;3.10;;;2.10;;
37483;SDS011;23337;52.212;9.926;2023-04-27T14:02:26;4.17;;;2.23;;
37483;SDS011;23337;52.212;9.926;2023-04-27T14:04:52;4.33;;;2.30;;
37483;SDS011;23337;52.212;9.926;2023-04-27T14:07:18;2.70;;;2.10;;
37483;SDS011;23337;52.212;9.926;2023-04-27T14:09:44;3.87;;;1.73;;
37483;SDS011;23337;52.212;9.926;2023-04-27T14:12:11;5.07;;;2.00;;
37483;SDS011;23337;52.212;9.926;2023-04-27T14:14:37;4.97;;;2.30;;
37483;SDS011;23337;52.212;9.926;2023-04-27T14:17:04;2.10;;;1.90;;
37483;SDS011;23337;52.212;9.926;2023-04-27T14:19:30;2.77;;;2.00;;
37483;SDS011;23337;52.212;9.926;2023-04-27T14:21:56;3.10;;;1.77;;
37483;SDS011;23337;52.212;9.926;2023-04-27T14:24:22;3.50;;;1.90;;
37483;SDS011;23337;52.212;9.926;2023-04-27T14:26:48;4.30;;;1.77;;
37483;SDS011;23337;52.212;9.926;2023-04-27T14:29:15;4.57;;;2.20;;
37483;SDS011;23337;52.212;9.926;2023-04-27T14:31:41;3.97;;;1.80;;
37483;SDS011;23337;52.212;9.926;2023-04-27T14:34:07;5.53;;;3.10;;
37483;SDS011;23337;52.212;9.926;2023-04-27T14:36:34;3.97;;;2.57;;
37483;SDS011;23337;52.212;9.926;2023-04-27T14:39:00;3.90;;;2.13;;
37483;SDS011;23337;52.212;9.926;2023-04-27T14:41:26;2.20;;;2.00;;
37483;SDS011;23337;52.212;9.926;2023-04-27T14:43:52;4.53;;;2.40;;
37483;SDS011;23337;52.212;9.926;2023-04-27T14:46:18;2.87;;;2.63;;
37483;SDS011;23337;52.212;9.926;2023-04-27T14:48:45;3.80;;;2.30;;
37483;SDS011;23337;52.212;9.926;2023-04-27T14:51:11;3.87;;;2.57;;
37483;SDS011;23337;52.212;9.926;2023-04-27T14:53:37;3.83;;;2.40;;
37483;SDS011;23337;52.212;9.926;2023-04-27T14:56:03;3.03;;;2.47;;